Time;durP1;ratioP1;P1;durP2;ratioP2;P2;SDS_P1;SDS_P2;PMS_P1;PMS_P2;Temp;Humidity;BMP_temperature;BMP_pressure;BME280_temperature;BME280_humidity;BME280_pressure;Samples;Min_cycle;Max_cycle;Signal;HPM_P1;HPM_P2
2024/01/29 00:00:35;;;;;;;7.50;2.65;;;9.60;99.90;;;;;;5064459;28;20021;-72
2024/01/29 00:03:01;;;;;;;5.80;2.72;;;9.60;99.90;;;;;;5049980;28;20956;-71
2024/01/29 00:05:26;;;;;;;10.25;3.58;;;9.60;99.90;;;;;;5061554;28;20509;-73
2024/01/29 00:07:53;;;;;;;7.82;3.50;;;9.70;99.90;;;;;;5051856;28;20056;-71
2024/01/29 00:10:18;;;;;;;8.30;2.50;;;9.70;99.90;;;;;;5065252;28;20274;-71
2024/01/29 00:12:44;;;;;;;4.82;3.00;;;9.70;99.90;;;;;;5048475;28;20032;-75
2024/01/29 00:15:10;;;;;;;6.03;3.15;;;9.80;99.90;;;;;;5061657;28;20028;-72
2024/01/29 00:17:35;;;;;;;10.77;3.47;;;9.80;99.90;;;;;;5048369;28;20484;-72
2024/01/29 00:20:01;;;;;;;6.07;3.42;;;9.80;99.90;;;;;;5056857;28;20036;-73
2024/01/29 00:22:28;;;;;;;8.23;3.35;;;9.80;99.90;;;;;;5049071;28;20044;-73
2024/01/29 00:24:53;;;;;;;7.90;2.45;;;9.80;99.90;;;;;;5062236;28;20032;-72
2024/01/29 00:27:19;;;;;;;7.63;3.03;;;9.90;99.90;;;;;;5049012;28;20032;-72
2024/01/29 00:29:44;;;;;;;5.40;3.17;;;9.90;99.90;;;;;;5062795;28;20039;-72
2024/01/29 00:32:10;;;;;;;11.25;3.03;;;9.90;99.90;;;;;;5058276;28;20028;-73
2024/01/29 00:34:36;;;;;;;8.95;4.57;;;9.90;99.90;;;;;;5053471;28;20036;-72
2024/01/29 00:37:03;;;;;;;5.35;3.13;;;9.90;99.90;;;;;;5065325;28;20079;-72
2024/01/29 00:39:29;;;;;;;7.15;3.45;;;9.80;99.90;;;;;;5046509;28;20024;-73
2024/01/29 00:41:54;;;;;;;4.88;3.30;;;10.00;99.90;;;;;;5065684;28;20410;-73
2024/01/29 00:44:20;;;;;;;5.65;2.40;;;10.00;99.90;;;;;;5048467;28;21264;-73
2024/01/29 00:46:45;;;;;;;6.18;2.65;;;9.90;99.90;;;;;;5057181;28;20539;-72
2024/01/29 00:49:11;;;;;;;9.95;3.72;;;9.70;99.90;;;;;;5051691;28;20407;-72
2024/01/29 00:51:38;;;;;;;8.77;2.60;;;9.50;99.90;;;;;;5063739;28;20063;-73
2024/01/29 00:54:03;;;;;;;4.60;3.28;;;9.40;99.90;;;;;;5049163;28;20090;-71
2024/01/29 00:56:29;;;;;;;12.82;3.13;;;9.40;99.90;;;;;;5066626;28;20038;-73
2024/01/29 00:58:55;;;;;;;9.27;3.53;;;9.60;99.90;;;;;;5045406;28;20566;-72
2024/01/29 01:01:20;;;;;;;6.10;3.63;;;9.60;99.90;;;;;;5061985;28;20069;-71
2024/01/29 01:03:46;;;;;;;5.78;2.90;;;9.60;99.90;;;;;;5052795;28;20133;-72
2024/01/29 01:06:11;;;;;;;8.13;3.45;;;9.60;99.90;;;;;;5068754;28;20089;-73
2024/01/29 01:08:37;;;;;;;3.45;2.67;;;9.60;99.90;;;;;;5056152;28;20563;-72
2024/01/29 01:11:03;;;;;;;7.90;3.72;;;9.60;99.90;;;;;;5068207;28;20029;-72
2024/01/29 01:13:29;;;;;;;5.10;2.80;;;9.50;99.90;;;;;;5061046;28;20028;-72
2024/01/29 01:15:54;;;;;;;3.65;2.88;;;9.50;99.90;;;;;;5052223;28;21488;-71
2024/01/29 01:18:20;;;;;;;10.23;3.72;;;9.50;99.90;;;;;;5063761;28;20436;-73
2024/01/29 01:20:46;;;;;;;13.52;3.70;;;9.50;99.90;;;;;;5052624;28;20024;-73
2024/01/29 01:23:11;;;;;;;4.93;3.13;;;9.50;99.90;;;;;;5067199;28;20408;-72
2024/01/29 01:25:37;;;;;;;7.03;4.15;;;9.50;99.90;;;;;;5052144;28;21317;-72
2024/01/29 01:28:03;;;;;;;6.13;3.20;;;9.50;99.90;;;;;;5067305;28;20040;-73
2024/01/29 01:30:29;;;;;;;10.30;3.22;;;9.40;99.90;;;;;;5053286;28;20036;-73
2024/01/29 01:32:54;;;;;;;6.60;3.55;;;9.40;99.90;;;;;;5061460;28;20046;-72
2024/01/29 01:35:20;;;;;;;6.57;2.72;;;9.50;99.90;;;;;;5055616;28;20032;-72
2024/01/29 01:37:45;;;;;;;3.97;2.88;;;9.50;99.90;;;;;;5070843;28;20027;-72
2024/01/29 01:40:11;;;;;;;4.63;3.17;;;9.50;99.90;;;;;;5049607;28;20032;-73
2024/01/29 01:42:40;;;;;;;10.13;3.83;;;9.50;99.90;;;;;;5066139;28;20077;-73
2024/01/29 01:45:06;;;;;;;7.97;3.33;;;9.60;99.90;;;;;;5053577;28;20028;-72
2024/01/29 01:47:32;;;;;;;4.60;3.17;;;9.70;99.90;;;;;;5063583;28;20048;-73
2024/01/29 01:49:58;;;;;;;9.60;3.70;;;9.80;99.90;;;;;;5055147;28;20496;-73
2024/01/29 01:52:24;;;;;;;16.02;3.95;;;9.90;99.90;;;;;;5063124;28;20483;-72
2024/01/29 01:54:49;;;;;;;7.90;3.08;;;10.00;99.90;;;;;;5070127;28;20065;-73
2024/01/29 01:57:16;;;;;;;7.88;3.63;;;10.00;99.90;;;;;;5056607;28;20020;-73
2024/01/29 01:59:41;;;;;;;4.97;4.10;;;10.10;99.90;;;;;;5060099;28;20035;-73
2024/01/29 02:02:08;;;;;;;8.45;3.25;;;10.10;99.90;;;;;;5047157;28;20044;-73
2024/01/29 02:04:33;;;;;;;6.13;3.35;;;10.10;99.90;;;;;;5060231;28;20039;-72
2024/01/29 02:06:59;;;;;;;7.47;3.63;;;10.10;99.90;;;;;;5046553;28;20081;-73
2024/01/29 02:09:26;;;;;;;6.30;3.67;;;10.00;99.90;;;;;;5064236;28;20138;-73
2024/01/29 02:11:53;;;;;;;4.38;2.85;;;10.00;99.90;;;;;;5053091;28;20032;-73
2024/01/29 02:14:19;;;;;;;8.70;3.92;;;10.00;99.90;;;;;;5064578;28;20090;-73
2024/01/29 02:16:45;;;;;;;7.68;3.75;;;;;;;;;;5052235;28;20726;-73
2024/01/29 02:19:16;;;;;;;12.27;3.78;;;9.90;99.90;;;;;;5064123;28;20035;-73
2024/01/29 02:21:42;;;;;;;19.58;4.25;;;10.00;99.90;;;;;;5054961;28;20027;-73
2024/01/29 02:24:08;;;;;;;12.32;3.40;;;10.10;99.90;;;;;;5066845;28;20377;-72
2024/01/29 02:26:34;;;;;;;8.35;4.53;;;10.10;99.90;;;;;;5046757;28;20036;-72
2024/01/29 02:28:59;;;;;;;10.10;3.55;;;10.10;99.90;;;;;;5068816;28;20032;-73
2024/01/29 02:31:25;;;;;;;9.57;3.22;;;10.10;99.90;;;;;;5055931;28;20033;-75
2024/01/29 02:33:51;;;;;;;4.00;3.60;;;10.10;99.90;;;;;;5058316;28;20036;-72
2024/01/29 02:36:16;;;;;;;4.05;3.40;;;10.10;99.90;;;;;;5067823;28;20029;-73
2024/01/29 02:38:42;;;;;;;6.95;3.63;;;10.10;99.90;;;;;;5053283;28;20032;-72
2024/01/29 02:41:08;;;;;;;14.32;3.60;;;10.10;99.90;;;;;;5067307;28;20415;-73
2024/01/29 02:43:34;;;;;;;11.15;4.15;;;10.20;99.90;;;;;;5059647;28;20070;-72
2024/01/29 02:46:00;;;;;;;10.98;2.95;;;10.20;99.90;;;;;;5061988;28;20123;-73
2024/01/29 02:48:26;;;;;;;10.65;4.22;;;10.20;99.90;;;;;;5050690;28;20138;-72
2024/01/29 02:50:52;;;;;;;7.95;3.65;;;10.30;99.90;;;;;;5067063;28;20119;-73
2024/01/29 02:53:18;;;;;;;6.65;3.83;;;10.20;99.90;;;;;;5049538;28;20510;-73
2024/01/29 02:55:43;;;;;;;12.95;4.03;;;10.30;99.90;;;;;;5067195;28;20036;-73
2024/01/29 02:58:09;;;;;;;7.40;3.28;;;10.20;99.90;;;;;;5055140;28;20021;-72
2024/01/29 03:00:35;;;;;;;12.65;4.72;;;10.00;99.90;;;;;;5059642;28;20033;-72
2024/01/29 03:03:00;;;;;;;10.00;4.30;;;9.90;99.90;;;;;;5048907;28;20370;-72
2024/01/29 03:05:26;;;;;;;5.07;3.80;;;9.90;99.90;;;;;;5062947;28;20040;-73
2024/01/29 03:07:52;;;;;;;11.13;3.85;;;9.70;99.90;;;;;;5051455;28;20019;-72
2024/01/29 03:10:18;;;;;;;9.95;3.65;;;9.60;99.90;;;;;;5064551;28;20036;-72
2024/01/29 03:12:44;;;;;;;7.53;4.40;;;9.60;99.90;;;;;;5050450;28;20040;-72
2024/01/29 03:15:09;;;;;;;6.20;3.45;;;9.70;99.90;;;;;;5060915;28;20063;-72
2024/01/29 03:17:35;;;;;;;10.27;3.50;;;9.70;99.90;;;;;;5063423;28;20020;-72
2024/01/29 03:20:23;;;;;;;11.82;3.92;;;9.70;99.90;;;;;;5046945;28;20425;-72
2024/01/29 03:22:48;;;;;;;9.25;4.53;;;9.80;99.90;;;;;;5065388;28;20273;-72
2024/01/29 03:25:14;;;;;;;7.55;4.85;;;9.90;99.90;;;;;;5050999;28;20489;-72
2024/01/29 03:27:40;;;;;;;5.03;3.70;;;10.00;99.90;;;;;;5060556;28;20120;-72
2024/01/29 03:30:06;;;;;;;9.13;4.13;;;10.10;99.90;;;;;;5050820;28;20458;-72
2024/01/29 03:32:31;;;;;;;11.57;3.70;;;10.10;99.90;;;;;;5058804;28;20036;-72
2024/01/29 03:34:57;;;;;;;10.70;4.20;;;10.10;99.90;;;;;;5052895;28;20047;-71
2024/01/29 03:37:23;;;;;;;8.00;3.90;;;10.10;99.90;;;;;;5065954;28;20025;-71
2024/01/29 03:39:48;;;;;;;9.18;4.30;;;10.10;99.90;;;;;;5048564;28;20427;-74
2024/01/29 03:42:14;;;;;;;6.10;3.50;;;10.10;99.90;;;;;;5064255;28;20681;-71
2024/01/29 03:44:39;;;;;;;5.88;3.78;;;10.20;99.90;;;;;;5050580;28;20036;-72
2024/01/29 03:47:05;;;;;;;8.18;4.15;;;10.20;99.90;;;;;;5059612;28;20063;-74
2024/01/29 03:49:31;;;;;;;7.40;4.03;;;10.30;99.90;;;;;;5053638;28;20119;-72
2024/01/29 03:51:56;;;;;;;9.80;4.28;;;10.20;99.90;;;;;;5061340;28;20483;-73
2024/01/29 03:54:22;;;;;;;10.13;4.18;;;10.30;99.90;;;;;;5046983;28;20028;-72
2024/01/29 03:56:48;;;;;;;14.95;4.95;;;10.30;99.90;;;;;;5061206;28;20093;-72
2024/01/29 03:59:13;;;;;;;9.80;4.78;;;10.20;99.90;;;;;;5047333;28;20029;-72
2024/01/29 04:01:39;;;;;;;10.20;3.88;;;10.20;99.90;;;;;;5058923;28;20028;-72
2024/01/29 04:04:09;;;;;;;11.82;4.05;;;10.10;99.90;;;;;;5066405;28;20435;-73
2024/01/29 04:06:37;;;;;;;13.02;4.40;;;10.20;99.90;;;;;;5050070;28;20069;-72
2024/01/29 04:09:03;;;;;;;5.57;4.07;;;10.30;99.90;;;;;;5065380;28;20060;-73
2024/01/29 04:11:28;;;;;;;10.43;4.93;;;10.30;99.90;;;;;;5050380;28;20035;-72
2024/01/29 04:13:54;;;;;;;9.45;4.53;;;10.30;99.90;;;;;;5058435;28;20067;-73
2024/01/29 04:16:19;;;;;;;7.20;4.30;;;10.30;99.90;;;;;;5049389;28;20593;-72
2024/01/29 04:18:45;;;;;;;11.30;4.35;;;10.30;99.90;;;;;;5063618;28;20575;-72
2024/01/29 04:21:11;;;;;;;8.73;5.43;;;10.30;99.90;;;;;;5051620;28;20048;-72
2024/01/29 04:23:36;;;;;;;9.90;5.10;;;10.10;99.90;;;;;;5069734;28;20508;-73
2024/01/29 04:26:02;;;;;;;8.35;4.53;;;10.10;99.90;;;;;;5049898;28;20788;-73
2024/01/29 04:28:28;;;;;;;11.02;4.85;;;10.10;99.90;;;;;;5068862;28;20373;-72
2024/01/29 04:30:54;;;;;;;14.77;5.00;;;10.20;99.90;;;;;;5060940;28;20043;-73
2024/01/29 04:33:19;;;;;;;6.90;5.20;;;10.20;99.90;;;;;;5061498;28;21453;-73
2024/01/29 04:35:45;;;;;;;8.55;5.13;;;10.20;99.90;;;;;;5060886;28;20177;-72
2024/01/29 04:38:11;;;;;;;11.73;6.20;;;10.20;99.90;;;;;;5068226;28;20145;-72
2024/01/29 04:40:39;;;;;;;7.38;4.10;;;10.30;99.90;;;;;;5053865;28;20625;-73
2024/01/29 04:43:05;;;;;;;10.73;4.60;;;10.40;99.90;;;;;;5071455;28;20085;-71
2024/01/29 04:45:31;;;;;;;10.07;4.78;;;10.40;99.90;;;;;;5066623;28;20032;-72
2024/01/29 04:47:56;;;;;;;11.27;4.70;;;10.40;99.90;;;;;;5051021;28;20062;-73
2024/01/29 04:50:22;;;;;;;11.25;5.22;;;10.40;99.90;;;;;;5072300;28;20047;-73
2024/01/29 04:52:48;;;;;;;8.73;4.95;;;10.40;99.90;;;;;;5050827;28;20474;-72
2024/01/29 04:55:14;;;;;;;11.00;5.05;;;10.40;99.90;;;;;;5069183;28;20024;-73
2024/01/29 04:57:41;;;;;;;13.73;4.20;;;10.40;99.90;;;;;;5055521;28;20418;-71
2024/01/29 05:00:08;;;;;;;7.65;3.92;;;10.40;99.90;;;;;;5065495;28;20055;-72
2024/01/29 05:02:34;;;;;;;8.40;4.43;;;10.50;99.90;;;;;;5055367;28;20043;-72
2024/01/29 05:05:00;;;;;;;10.68;5.03;;;10.60;99.90;;;;;;5062937;28;20036;-73
2024/01/29 05:07:25;;;;;;;7.57;4.25;;;10.60;99.90;;;;;;5051634;28;20559;-73
2024/01/29 05:09:51;;;;;;;10.65;4.55;;;10.60;99.90;;;;;;5067683;28;20051;-72
2024/01/29 05:12:16;;;;;;;14.27;4.50;;;10.60;99.90;;;;;;5039491;28;20063;-72
2024/01/29 05:14:42;;;;;;;7.00;4.25;;;10.60;99.90;;;;;;5064451;28;20160;-72
2024/01/29 05:17:09;;;;;;;7.88;4.88;;;10.50;99.90;;;;;;5054060;28;20440;-73
2024/01/29 05:19:35;;;;;;;9.30;4.78;;;10.40;99.90;;;;;;5066242;28;21008;-72
2024/01/29 05:22:01;;;;;;;13.18;4.78;;;10.40;99.90;;;;;;5053212;28;20164;-72
2024/01/29 05:24:27;;;;;;;14.13;4.65;;;10.50;99.90;;;;;;5069952;28;20507;-72
2024/01/29 05:26:53;;;;;;;13.40;4.88;;;10.40;99.90;;;;;;5063460;28;20039;-73
2024/01/29 05:29:19;;;;;;;12.52;5.32;;;10.50;99.90;;;;;;5054372;28;20040;-72
2024/01/29 05:31:44;;;;;;;8.48;4.97;;;10.40;99.90;;;;;;5070208;28;20062;-73
2024/01/29 05:34:10;;;;;;;23.35;5.35;;;10.50;99.90;;;;;;5051768;28;20028;-73
2024/01/29 05:36:35;;;;;;;9.50;4.90;;;10.50;99.90;;;;;;5069044;28;20067;-73
2024/01/29 05:39:01;;;;;;;15.30;5.68;;;10.50;99.90;;;;;;5055160;28;20028;-72
2024/01/29 05:41:27;;;;;;;13.07;5.65;;;10.50;99.90;;;;;;5062586;28;20039;-72
2024/01/29 05:43:52;;;;;;;13.50;5.30;;;10.50;99.90;;;;;;5052889;28;20542;-73
2024/01/29 05:46:18;;;;;;;14.55;5.22;;;10.50;99.90;;;;;;5062879;28;20421;-72
2024/01/29 05:48:44;;;;;;;14.45;5.05;;;10.30;99.90;;;;;;5052593;28;20052;-72
2024/01/29 05:51:09;;;;;;;14.50;5.28;;;10.30;99.90;;;;;;5069594;28;20081;-72
2024/01/29 05:53:36;;;;;;;12.48;5.63;;;;;;;;;;5049923;28;20879;-73
2024/01/29 05:56:05;;;;;;;11.88;5.25;;;10.60;99.90;;;;;;5069282;28;20155;-72
2024/01/29 05:58:33;;;;;;;10.50;5.07;;;10.50;99.90;;;;;;5054386;28;20032;-72
2024/01/29 06:00:59;;;;;;;16.10;5.47;;;10.60;99.90;;;;;;5063492;28;20819;-72
2024/01/29 06:03:25;;;;;;;10.85;4.90;;;10.50;99.90;;;;;;5053337;28;20072;-73
2024/01/29 06:05:51;;;;;;;7.88;4.90;;;10.50;99.90;;;;;;5068809;28;20085;-73
2024/01/29 06:08:17;;;;;;;17.42;6.32;;;10.50;99.90;;;;;;5059613;28;20417;-72
2024/01/29 06:10:42;;;;;;;9.68;5.10;;;10.20;99.90;;;;;;5060408;28;20028;-72
2024/01/29 06:13:08;;;;;;;21.30;7.88;;;10.10;99.90;;;;;;5059621;28;20058;-72
2024/01/29 06:15:34;;;;;;;16.40;6.47;;;9.90;99.90;;;;;;5045429;28;20039;-72
2024/01/29 06:18:00;;;;;;;22.70;7.05;;;9.80;99.90;;;;;;5066222;28;20032;-73
2024/01/29 06:20:25;;;;;;;18.23;5.70;;;9.80;99.90;;;;;;5040362;28;20433;-73
2024/01/29 06:22:52;;;;;;;16.30;7.25;;;9.80;99.90;;;;;;5065340;28;20159;-72
2024/01/29 06:25:19;;;;;;;21.92;6.85;;;9.70;99.90;;;;;;5052913;28;20108;-72
2024/01/29 06:27:45;;;;;;;17.95;8.32;;;9.70;99.90;;;;;;5065187;28;20020;-73
2024/01/29 06:30:12;;;;;;;14.57;6.95;;;9.70;99.90;;;;;;5039577;28;20040;-71
2024/01/29 06:32:38;;;;;;;17.08;7.53;;;9.80;99.90;;;;;;5064113;28;20025;-73
2024/01/29 06:35:04;;;;;;;14.30;6.97;;;9.80;99.90;;;;;;5048641;28;20039;-72
2024/01/29 06:37:30;;;;;;;19.98;7.10;;;10.00;99.90;;;;;;5067648;28;20043;-73
2024/01/29 06:39:55;;;;;;;13.80;6.63;;;10.10;99.90;;;;;;5046733;28;20496;-72
2024/01/29 06:42:21;;;;;;;22.88;7.57;;;10.00;99.90;;;;;;5063921;28;20036;-72
2024/01/29 06:44:46;;;;;;;26.95;6.45;;;9.90;99.90;;;;;;5052008;28;20115;-72
2024/01/29 06:47:14;;;;;;;20.13;7.00;;;9.90;99.90;;;;;;5059447;28;20742;-73
2024/01/29 06:49:40;;;;;;;24.15;8.23;;;9.90;99.90;;;;;;5059989;28;20053;-73
2024/01/29 06:52:06;;;;;;;19.20;7.03;;;10.10;99.90;;;;;;5060555;28;20089;-74
2024/01/29 06:54:31;;;;;;;24.42;6.90;;;10.10;99.90;;;;;;5062670;28;20032;-72
2024/01/29 06:56:58;;;;;;;21.33;7.05;;;10.00;99.90;;;;;;5051369;28;20422;-72
2024/01/29 06:59:25;;;;;;;16.50;6.93;;;10.00;99.90;;;;;;5063775;28;20033;-73
2024/01/29 07:01:52;;;;;;;16.35;7.00;;;9.80;99.90;;;;;;5049178;28;20557;-72
2024/01/29 07:04:18;;;;;;;15.18;6.78;;;9.80;99.90;;;;;;5052361;28;20537;-71
2024/01/29 07:06:44;;;;;;;15.32;5.95;;;9.80;99.90;;;;;;5048929;28;20116;-73
2024/01/29 07:09:09;;;;;;;14.93;6.70;;;9.80;99.90;;;;;;5063087;28;20076;-72
2024/01/29 07:11:35;;;;;;;18.58;7.63;;;9.70;99.90;;;;;;5047521;28;20548;-72
2024/01/29 07:14:01;;;;;;;12.82;5.75;;;9.80;99.90;;;;;;5057928;28;20476;-71
2024/01/29 07:16:26;;;;;;;16.85;6.75;;;10.00;99.90;;;;;;5040564;28;20523;-73
2024/01/29 07:18:52;;;;;;;23.60;7.43;;;9.90;99.90;;;;;;5062526;28;20350;-71
2024/01/29 07:21:21;;;;;;;13.63;7.15;;;;;;;;;;5048320;28;20469;-72
2024/01/29 07:23:46;;;;;;;19.77;6.65;;;9.80;99.90;;;;;;5058777;28;20024;-71
2024/01/29 07:26:12;;;;;;;15.75;6.78;;;9.70;99.90;;;;;;5050627;28;20037;-72
2024/01/29 07:28:38;;;;;;;17.08;6.47;;;9.60;99.90;;;;;;5061054;28;20035;-72
2024/01/29 07:31:03;;;;;;;21.83;7.28;;;9.70;99.90;;;;;;5057391;28;20032;-71
2024/01/29 07:33:29;;;;;;;15.48;7.65;;;9.60;99.90;;;;;;5057558;28;20049;-72
2024/01/29 07:35:55;;;;;;;18.27;7.20;;;9.50;99.90;;;;;;5063574;28;20059;-72
2024/01/29 07:38:20;;;;;;;13.23;6.45;;;9.60;99.90;;;;;;5050888;28;20051;-73
2024/01/29 07:40:46;;;;;;;15.93;7.10;;;9.60;99.90;;;;;;5055972;28;21036;-73
2024/01/29 07:43:12;;;;;;;18.25;7.35;;;9.60;99.90;;;;;;5044727;28;20033;-73
2024/01/29 07:45:37;;;;;;;26.13;6.75;;;9.60;99.90;;;;;;5057137;28;20775;-73
2024/01/29 07:48:04;;;;;;;23.42;8.57;;;9.60;99.90;;;;;;5043095;28;20049;-73
2024/01/29 07:50:31;;;;;;;14.50;6.07;;;9.50;99.90;;;;;;5064741;28;20032;-72
2024/01/29 07:52:56;;;;;;;16.23;6.60;;;9.50;99.90;;;;;;5049241;28;20028;-73
2024/01/29 07:55:25;;;;;;;27.95;8.30;;;;;;;;;;5056670;28;20165;-72
2024/01/29 07:57:52;;;;;;;22.13;7.23;;;9.80;99.90;;;;;;5047514;28;20439;-72
2024/01/29 08:00:18;;;;;;;16.77;6.85;;;9.80;99.90;;;;;;5056032;28;20023;-72
2024/01/29 08:02:44;;;;;;;17.85;6.72;;;9.90;99.90;;;;;;5047839;28;20032;-71
2024/01/29 08:05:10;;;;;;;23.83;6.70;;;9.80;99.90;;;;;;5060417;28;20036;-73
2024/01/29 08:07:37;;;;;;;15.02;6.57;;;9.70;99.90;;;;;;5043438;28;20032;-74
2024/01/29 08:10:03;;;;;;;11.65;5.43;;;9.60;99.90;;;;;;5051871;28;20067;-73
2024/01/29 08:12:29;;;;;;;16.42;6.00;;;9.50;99.90;;;;;;5042391;28;20032;-77
2024/01/29 08:14:55;;;;;;;11.32;4.82;;;9.40;99.90;;;;;;5053031;28;20067;-73
2024/01/29 08:17:20;;;;;;;13.45;5.82;;;9.40;99.90;;;;;;5055946;28;20106;-71
2024/01/29 08:19:46;;;;;;;14.20;5.38;;;9.30;99.90;;;;;;5047053;28;20122;-71
2024/01/29 08:22:11;;;;;;;11.38;5.45;;;9.30;99.90;;;;;;5054995;28;20520;-74
2024/01/29 08:24:38;;;;;;;21.58;6.43;;;9.30;99.90;;;;;;5049586;28;20051;-72
2024/01/29 08:27:04;;;;;;;13.27;5.50;;;9.30;99.90;;;;;;5055022;28;20032;-73
2024/01/29 08:29:30;;;;;;;10.27;5.70;;;9.30;99.90;;;;;;5044691;28;20476;-72
2024/01/29 08:31:58;;;;;;;9.25;6.35;;;9.40;99.90;;;;;;5054285;28;20047;-72
2024/01/29 08:34:25;;;;;;;11.13;6.07;;;9.20;99.90;;;;;;5044689;28;20037;-73
2024/01/29 08:36:51;;;;;;;11.13;3.88;;;9.30;99.90;;;;;;5065739;28;20047;-77
2024/01/29 08:39:17;;;;;;;11.13;5.40;;;9.50;99.90;;;;;;5043884;28;20024;-77
2024/01/29 08:41:43;;;;;;;12.25;6.13;;;9.80;99.90;;;;;;5053548;28;20040;-75
2024/01/29 08:44:09;;;;;;;9.98;5.68;;;9.80;99.90;;;;;;5041515;28;20032;-75
2024/01/29 08:46:35;;;;;;;14.10;6.90;;;10.10;99.90;;;;;;5056088;28;20043;-76
2024/01/29 08:49:01;;;;;;;11.73;5.30;;;10.30;99.90;;;;;;5042017;28;20044;-79
2024/01/29 08:51:26;;;;;;;12.98;6.18;;;10.10;99.90;;;;;;5065365;28;20040;-73
2024/01/29 08:53:52;;;;;;;10.30;5.40;;;10.20;99.90;;;;;;5049694;28;20569;-74
2024/01/29 08:56:18;;;;;;;11.57;6.22;;;10.40;99.90;;;;;;5059942;28;20302;-77
2024/01/29 08:58:43;;;;;;;12.98;6.63;;;10.40;99.90;;;;;;5053733;28;20387;-73
2024/01/29 09:01:09;;;;;;;14.65;6.32;;;10.60;99.90;;;;;;5040572;28;20766;-72
2024/01/29 09:03:35;;;;;;;9.82;5.00;;;10.60;99.90;;;;;;5061747;28;20131;-70
2024/01/29 09:06:00;;;;;;;13.48;6.95;;;10.70;99.90;;;;;;5049659;28;20170;-72
2024/01/29 09:08:27;;;;;;;12.75;5.43;;;10.80;99.90;;;;;;5057845;28;20047;-75
2024/01/29 09:10:53;;;;;;;20.00;6.72;;;10.90;99.90;;;;;;5046932;28;20496;-73
2024/01/29 09:13:19;;;;;;;13.95;6.75;;;10.90;99.90;;;;;;5054357;28;20048;-74
2024/01/29 09:15:47;;;;;;;12.45;6.85;;;10.60;99.90;;;;;;5037415;28;20039;-72
2024/01/29 09:18:13;;;;;;;11.20;5.32;;;10.40;99.90;;;;;;5057972;28;20039;-75
2024/01/29 09:20:39;;;;;;;10.25;5.38;;;10.30;99.90;;;;;;5039631;28;20673;-73
2024/01/29 09:23:07;;;;;;;11.80;4.95;;;;;;;;;;5055264;28;20431;-74
2024/01/29 09:25:32;;;;;;;10.80;4.90;;;10.00;99.90;;;;;;5048698;28;20079;-72
2024/01/29 09:28:00;;;;;;;14.25;6.32;;;10.30;99.90;;;;;;5057662;28;20032;-75
2024/01/29 09:30:26;;;;;;;17.77;5.97;;;10.20;99.90;;;;;;5042739;28;20148;-76
2024/01/29 09:32:51;;;;;;;10.35;4.78;;;10.10;99.90;;;;;;5048695;28;20405;-73
2024/01/29 09:35:17;;;;;;;12.05;5.47;;;10.20;99.90;;;;;;5029825;28;20041;-74
2024/01/29 09:37:43;;;;;;;13.52;5.05;;;10.10;99.90;;;;;;5049453;28;20056;-73
2024/01/29 09:40:12;;;;;;;13.40;5.38;;;10.10;99.90;;;;;;5052053;28;20110;-76
2024/01/29 09:42:41;;;;;;;22.88;5.65;;;10.00;99.90;;;;;;5034411;28;20073;-73
2024/01/29 09:45:10;;;;;;;10.95;5.32;;;10.10;99.90;;;;;;5046584;28;20063;-74
2024/01/29 09:47:37;;;;;;;9.98;5.13;;;10.10;99.90;;;;;;5031865;28;20111;-73
2024/01/29 09:50:07;;;;;;;12.48;4.82;;;10.10;99.90;;;;;;5046599;28;20071;-73
2024/01/29 09:52:37;;;;;;;6.18;4.00;;;10.20;99.90;;;;;;5038184;28;20042;-75
2024/01/29 09:55:04;;;;;;;;;;;10.20;99.90;;;;;;5055536;28;20039;-76
2024/01/29 09:57:31;;;;;;;5.70;4.10;;;10.30;99.90;;;;;;5048997;28;19963;-77
2024/01/29 09:59:57;;;;;;;12.15;5.72;;;10.40;99.90;;;;;;5057348;28;20074;-80
2024/01/29 10:02:23;;;;;;;10.10;5.32;;;10.40;99.90;;;;;;5037662;28;20553;-76
2024/01/29 10:04:48;;;;;;;12.35;5.88;;;10.40;99.90;;;;;;5058963;28;20029;-75
2024/01/29 10:07:16;;;;;;;8.65;5.38;;;10.40;99.90;;;;;;5033752;28;20043;-74
2024/01/29 10:09:42;;;;;;;13.55;5.20;;;10.40;99.90;;;;;;5059761;28;20044;-77
2024/01/29 10:12:08;;;;;;;12.48;5.03;;;10.40;99.90;;;;;;5043098;28;20035;-76
2024/01/29 10:14:34;;;;;;;12.45;5.13;;;10.30;99.90;;;;;;5052051;28;20126;-75
2024/01/29 10:17:00;;;;;;;11.30;4.80;;;10.30;99.90;;;;;;5042514;28;20036;-75
2024/01/29 10:19:36;;;;;;;15.05;5.93;;;10.40;99.90;;;;;;5048355;28;20105;-76
2024/01/29 10:22:01;;;;;;;12.80;6.15;;;10.40;99.90;;;;;;5032919;28;20489;-76
2024/01/29 10:24:27;;;;;;;11.32;6.50;;;10.60;99.90;;;;;;5053179;28;20672;-76
2024/01/29 10:26:53;;;;;;;8.68;4.32;;;10.60;99.90;;;;;;5034987;28;20064;-71
2024/01/29 10:29:18;;;;;;;9.20;4.78;;;10.40;99.90;;;;;;5055692;28;20033;-77
2024/01/29 10:31:44;;;;;;;11.13;5.13;;;10.40;99.90;;;;;;5052353;28;20128;-79
2024/01/29 10:34:15;;;;;;;9.65;5.20;;;10.20;99.90;;;;;;5038497;28;20161;-76
2024/01/29 10:36:40;;;;;;;10.32;6.40;;;10.30;99.90;;;;;;5053789;28;20036;-75
2024/01/29 10:39:10;;;;;;;13.90;5.78;;;10.20;99.90;;;;;;5043941;28;20680;-76
2024/01/29 10:41:36;;;;;;;12.68;5.10;;;10.40;99.90;;;;;;5054893;28;20081;-76
2024/01/29 10:44:04;;;;;;;13.05;4.75;;;10.40;99.90;;;;;;5036643;28;20077;-76
2024/01/29 10:46:34;;;;;;;8.82;4.68;;;10.50;99.90;;;;;;5051330;28;20369;-75
2024/01/29 10:49:00;;;;;;;10.43;5.10;;;10.40;99.90;;;;;;5037796;28;20059;-76
2024/01/29 10:51:27;;;;;;;14.82;5.38;;;10.30;99.90;;;;;;5055010;28;20619;-75
2024/01/29 10:53:54;;;;;;;10.93;5.35;;;10.40;99.90;;;;;;5031787;28;20032;-76
2024/01/29 10:56:21;;;;;;;9.98;5.32;;;10.50;99.90;;;;;;5052512;28;20462;-75
2024/01/29 10:58:49;;;;;;;10.70;5.18;;;10.70;99.90;;;;;;5039849;28;20033;-76
2024/01/29 11:01:15;;;;;;;11.35;5.53;;;10.70;99.90;;;;;;5050398;28;20466;-74
2024/01/29 11:03:43;;;;;;;8.65;4.40;;;10.80;99.90;;;;;;5049448;28;20032;-75
2024/01/29 11:06:09;;;;;;;9.07;4.43;;;10.70;99.90;;;;;;5058415;28;20044;-74
2024/01/29 11:08:39;;;;;;;6.50;4.15;;;10.90;99.90;;;;;;5044881;28;20477;-75
2024/01/29 11:11:05;;;;;;;;;;;11.00;99.90;;;;;;5058312;28;21819;-73
2024/01/29 11:13:38;;;;;;;9.65;5.15;;;10.80;99.90;;;;;;5052301;28;19969;-77
2024/01/29 11:16:06;;;;;;;7.25;4.65;;;;;;;;;;5035013;28;20093;-73
2024/01/29 11:18:34;;;;;;;8.43;4.80;;;11.00;99.90;;;;;;5055315;28;20039;-73
2024/01/29 11:21:00;;;;;;;9.90;5.45;;;10.90;99.90;;;;;;5047921;28;20047;-71
2024/01/29 11:23:28;;;;;;;9.82;5.25;;;11.00;99.90;;;;;;5060954;28;20032;-74
2024/01/29 11:25:53;;;;;;;10.80;4.55;;;11.10;99.90;;;;;;5042046;28;20132;-73
2024/01/29 11:28:19;;;;;;;9.30;5.15;;;11.20;99.90;;;;;;5047103;28;20036;-73
2024/01/29 11:30:49;;;;;;;8.52;4.10;;;11.00;99.90;;;;;;5044860;28;20134;-76
2024/01/29 11:33:18;;;;;;;9.40;4.97;;;10.70;99.90;;;;;;5060643;28;20556;-75
2024/01/29 11:35:45;;;;;;;10.65;5.30;;;10.40;99.90;;;;;;5047025;28;20036;-72
2024/01/29 11:38:14;;;;;;;8.55;5.18;;;10.30;99.90;;;;;;5050335;28;20078;-72
2024/01/29 11:40:41;;;;;;;9.68;4.70;;;10.30;99.90;;;;;;5034580;28;20043;-73
2024/01/29 11:43:12;;;;;;;12.23;5.10;;;10.40;99.90;;;;;;5050102;28;20154;-70
2024/01/29 11:45:38;;;;;;;7.20;4.28;;;10.60;99.90;;;;;;5045096;28;20036;-72
2024/01/29 11:48:12;;;;;;;9.98;5.70;;;10.70;99.90;;;;;;5051132;28;20424;-73
2024/01/29 11:50:39;;;;;;;11.25;5.07;;;10.90;99.90;;;;;;5047570;28;20039;-71
2024/01/29 11:53:11;;;;;;;16.02;5.05;;;11.00;99.90;;;;;;5060546;28;20042;-74
2024/01/29 11:55:37;;;;;;;19.20;5.43;;;10.90;99.90;;;;;;5042022;28;20491;-78
2024/01/29 11:58:03;;;;;;;12.48;6.20;;;10.80;99.90;;;;;;5056466;28;20028;-74
2024/01/29 12:00:29;;;;;;;12.32;4.63;;;10.80;99.90;;;;;;5048881;28;20036;-74
2024/01/29 12:02:54;;;;;;;9.52;5.45;;;10.70;99.90;;;;;;5057713;28;20389;-73
2024/01/29 12:05:20;;;;;;;9.32;5.15;;;10.70;99.90;;;;;;5048800;28;20035;-77
2024/01/29 12:07:47;;;;;;;14.55;6.05;;;10.60;99.90;;;;;;5059587;28;20033;-74
2024/01/29 12:10:14;;;;;;;11.18;6.32;;;10.80;99.90;;;;;;5053144;28;20028;-76
2024/01/29 12:12:44;;;;;;;14.35;6.03;;;10.90;99.90;;;;;;5051209;28;20033;-77
2024/01/29 12:15:13;;;;;;;18.42;6.68;;;11.00;99.90;;;;;;5053308;28;20044;-74
2024/01/29 12:17:41;;;;;;;12.68;6.07;;;11.00;99.90;;;;;;5044106;28;20031;-75
2024/01/29 12:20:10;;;;;;;13.05;6.30;;;11.10;99.90;;;;;;5055833;28;20054;-76
2024/01/29 12:22:36;;;;;;;13.60;7.03;;;;;;;;;;5043250;28;20456;-78
2024/01/29 12:25:02;;;;;;;23.17;6.40;;;11.20;99.90;;;;;;5059207;28;20058;-76
2024/01/29 12:27:28;;;;;;;13.13;7.45;;;11.00;99.90;;;;;;5042234;28;20036;-75
2024/01/29 12:29:54;;;;;;;13.68;6.18;;;10.80;99.90;;;;;;5054765;28;20134;-75
2024/01/29 12:32:20;;;;;;;15.35;6.43;;;11.10;99.90;;;;;;5037969;28;21080;-76
2024/01/29 12:34:47;;;;;;;18.52;6.50;;;10.90;99.90;;;;;;5051175;28;20032;-79
2024/01/29 12:37:22;;;;;;;15.23;6.32;;;11.00;99.90;;;;;;5045630;28;20576;-77
2024/01/29 12:39:51;;;;;;;23.55;7.47;;;11.40;99.90;;;;;;5054540;28;21049;-75
2024/01/29 12:42:18;;;;;;;18.45;7.65;;;11.50;99.90;;;;;;5041982;28;20029;-77